Old Res Weather

Lexington, Massachusetts, USA

68°F
8/10/2022 3:55am 
  • Lexington Conditions: Overcast
  • Temperature: 67.6°F / 19.8°C 
  • Dew Point: 63.3°FDecreased 0.7°Fsince last hour.
  • Relative Humidity: 86%Decreased 2.0% since last hour.
  • Wind: Calm, 10-min avg: Calm, gust: 3 mph
  • Barometer: 30.04 in Steady
  • Visibility: 10 miles
  • Rain Today: 0.00 in
  • UV Index: $VPuv None
  •   

Nearby Reports - Official Weather Stations - Current Conditions

Data from the National Weather Service


Warning: Undefined variable $sunrise in /homepages/6/d276339138/htdocs/weather/oldRes/regional.php on line 110

Warning: Undefined variable $sunset in /homepages/6/d276339138/htdocs/weather/oldRes/regional.php on line 110

KBED - Bedford, Massachusetts, USA


Distance from station: NW 4mi, 6km

Updated Wed Aug 10, 2022 2:51am EDT

Overcast

Overcast

Wind from NE

Wind:

NE 9 mph, 15 km/h

Temperature: 68°F (20°C)

Dew Point: 63°F (17°C)

Humidity: 83%

Barometer: 30.02 in (1016.6 hPa)

Clouds: Overcast

Visibility: 10 miles (16 km)

Cloud details: Overcast 1100 ft


2022/08/10 06:51 KBED 100651Z AUTO 04008KT 10SM OVC011 20/17 A3002 RMK AO2 SLP175 T02000172


Warning: Undefined variable $sunrise in /homepages/6/d276339138/htdocs/weather/oldRes/regional.php on line 110

Warning: Undefined variable $sunset in /homepages/6/d276339138/htdocs/weather/oldRes/regional.php on line 110

KBOS - Boston, Massachusetts, USA


Distance from station: ESE 13mi, 20km

Updated Wed Aug 10, 2022 2:54am EDT

Overcast

Overcast

Wind from NNE

Wind:

NNE 9 mph, 15 km/h

Temperature: 66°F (19°C)

Dew Point: 64°F (18°C)

Humidity: 94%

Barometer: 30.03 in (1016.9 hPa)

Clouds: Overcast

Visibility: 10 miles (16 km)

Cloud details: Overcast 1000 ft


2022/08/10 06:54 KBOS 100654Z 03008KT 10SM OVC010 19/18 A3003 RMK A02 SLP169 T01940178 $


Warning: Undefined variable $sunrise in /homepages/6/d276339138/htdocs/weather/oldRes/regional.php on line 110

Warning: Undefined variable $sunset in /homepages/6/d276339138/htdocs/weather/oldRes/regional.php on line 110

KOWD - Norwood, Massachusetts, USA


Distance from station: SSE 18mi, 29km

Updated Wed Aug 10, 2022 2:53am EDT

Overcast

Overcast

Wind from ENE

Wind:

ENE 6 mph, 9 km/h

Temperature: 68°F (20°C)

Dew Point: 64°F (18°C)

Humidity: 88%

Barometer: 30.02 in (1016.6 hPa)

Clouds: Overcast

Visibility: 10 miles (16 km)

Cloud details: Overcast 900 ft


2022/08/10 06:53 KOWD 100653Z AUTO 07005KT 10SM OVC009 20/18 A3002 RMK AO2 SLP163 T02000178


Warning: Undefined variable $sunrise in /homepages/6/d276339138/htdocs/weather/oldRes/regional.php on line 110

Warning: Undefined variable $sunset in /homepages/6/d276339138/htdocs/weather/oldRes/regional.php on line 110

KBVY - Beverly, Massachusetts, USA


Distance from station: ENE 20mi, 32km

Updated Wed Aug 10, 2022 2:53am EDT

Overcast

Overcast

Wind from NNE

Wind:

NNE 8 mph, 13 km/h

Temperature: 66°F (19°C)

Dew Point: 63°F (17°C)

Humidity: 88%

Barometer: 30.03 in (1016.9 hPa)

Clouds: Overcast

Visibility: 10 miles (16 km)

Cloud details: Partly cloudy 1500 ft
Overcast 2000 ft


2022/08/10 06:53 KBVY 100653Z AUTO 02007KT 10SM SCT015 OVC020 19/17 A3003 RMK AO2 SLP162 T01890172


Warning: Undefined variable $sunrise in /homepages/6/d276339138/htdocs/weather/oldRes/regional.php on line 110

Warning: Undefined variable $sunset in /homepages/6/d276339138/htdocs/weather/oldRes/regional.php on line 110

KLWM - Lawrence, Massachusetts, USA


Distance from station: NNE 20mi, 33km

Updated Wed Aug 10, 2022 2:54am EDT

Overcast

Overcast

Wind from NE

Wind:

NE 8 mph, 13 km/h

Temperature: 66°F (19°C)

Dew Point: 63°F (17°C)

Humidity: 88%

Barometer: 30.05 in (1017.6 hPa)

Clouds: Overcast

Visibility: 10 miles (16 km)

Cloud details: Overcast 1300 ft


2022/08/10 06:54 KLWM 100654Z AUTO 04007KT 10SM OVC013 19/17 A3005 RMK AO2 SLP175 T01940167


Warning: Undefined variable $sunrise in /homepages/6/d276339138/htdocs/weather/oldRes/regional.php on line 110

Warning: Undefined variable $sunset in /homepages/6/d276339138/htdocs/weather/oldRes/regional.php on line 110

KFIT - Fitchburg, Massachusetts, USA


Distance from station: WNW 27mi, 43km

Updated Wed Aug 10, 2022 2:52am EDT

Overcast

Overcast

Wind from NE

Wind:

NE 3 mph, 6 km/h

Temperature: 68°F (20°C)

Dew Point: 63°F (17°C)

Humidity: 83%

Barometer: 30.05 in (1017.6 hPa)

Clouds: Overcast

Visibility: 10 miles (16 km)

Cloud details: Overcast 1400 ft


2022/08/10 06:52 KFIT 100652Z AUTO 05003KT 10SM OVC014 20/17 A3005 RMK AO2 SLP173 T02000167


Warning: Undefined variable $sunrise in /homepages/6/d276339138/htdocs/weather/oldRes/regional.php on line 110

Warning: Undefined variable $sunset in /homepages/6/d276339138/htdocs/weather/oldRes/regional.php on line 110

KASH - Nashua/Boire Fld, New Hampshire, USA


Distance from station: NNW 28mi, 45km

Updated Wed Aug 10, 2022 2:56am EDT

Overcast

Overcast

Wind from E

Wind:

E 6 mph, 9 km/h

Temperature: 68°F (20°C)

Dew Point: 66°F (19°C)

Humidity: 94%

Barometer: 30.05 in (1017.6 hPa)

Clouds: Overcast

Visibility: 10 miles (16 km)

Cloud details: Overcast 1700 ft


2022/08/10 06:56 KASH 100656Z AUTO 08005KT 10SM OVC017 20/19 A3005 RMK AO2 SLP177 T02000194 $


Warning: Undefined variable $sunrise in /homepages/6/d276339138/htdocs/weather/oldRes/regional.php on line 110

Warning: Undefined variable $sunset in /homepages/6/d276339138/htdocs/weather/oldRes/regional.php on line 110

KORH - Worcester, Massachusetts, USA


Distance from station: WSW 34mi, 54km

Updated Wed Aug 10, 2022 2:54am EDT

Overcast

Overcast

Wind from NE

Wind:

NE 6 mph, 9 km/h

Temperature: 64°F (18°C)

Dew Point: 64°F (18°C)

Humidity: 100%

Barometer: 30.05 in (1017.6 hPa)

Clouds: Overcast

Visibility: 10 miles (16 km)

Cloud details: Overcast 300 ft


2022/08/10 06:54 KORH 100654Z AUTO 05005KT 10SM OVC003 18/18 A3005 RMK AO2 SLP169 T01830178


Warning: Undefined variable $sunrise in /homepages/6/d276339138/htdocs/weather/oldRes/regional.php on line 110

Warning: Undefined variable $sunset in /homepages/6/d276339138/htdocs/weather/oldRes/regional.php on line 110

KMHT - Manchester, New Hampshire, USA


Distance from station: NNW 36mi, 57km

Updated Wed Aug 10, 2022 2:53am EDT

Overcast

Overcast

Wind from calm

Wind:

Calm

Temperature: 70°F (21°C)

Dew Point: 63°F (17°C)

Humidity: 78%

Barometer: 30.03 in (1016.9 hPa)

Clouds: Overcast

Visibility: 10 miles (16 km)

Cloud details: Overcast 1300 ft


2022/08/10 06:53 KMHT 100653Z 00000KT 10SM OVC013 21/17 A3003 RMK AO2 SLP176 T02060167


Warning: Undefined variable $sunrise in /homepages/6/d276339138/htdocs/weather/oldRes/regional.php on line 110

Warning: Undefined variable $sunset in /homepages/6/d276339138/htdocs/weather/oldRes/regional.php on line 110

KGHG - Marshfield, Massachusetts, USA


Distance from station: SE 38mi, 60km

Updated Wed Aug 10, 2022 3:35am EDT

Overcast

Overcast

Wind from calm

Wind:

Calm

Temperature: 66°F (19°C)

Dew Point: 64°F (18°C)

Humidity: 94%

Barometer: 30.01 in (1016.3 hPa)

Clouds: Overcast

Cloud details: Overcast 600 ft


2022/08/10 07:35 KGHG 100735Z AUTO 00000KT OVC006 19/18 A3001 RMK AO2 LTG DSNT S


Warning: Undefined variable $sunrise in /homepages/6/d276339138/htdocs/weather/oldRes/regional.php on line 110

Warning: Undefined variable $sunset in /homepages/6/d276339138/htdocs/weather/oldRes/regional.php on line 110

KSFZ - Pawtucket, Rhode Island, USA


Distance from station: SSW 38mi, 61km

Updated Wed Aug 10, 2022 3:18am EDT

Overcast

Overcast

Wind from NE

Wind:

NE 7 mph, 11 km/h

Temperature: 66°F (19°C)

Dew Point: 64°F (18°C)

Humidity: 94%

Barometer: 30.03 in (1016.9 hPa)

Clouds: Overcast

Visibility: 10 miles (16 km)

Cloud details: Overcast 500 ft


2022/08/10 07:18 KSFZ 100718Z AUTO 05006KT 10SM OVC005 19/18 A3003 RMK AO2 $


Warning: Undefined variable $sunrise in /homepages/6/d276339138/htdocs/weather/oldRes/regional.php on line 110

Warning: Undefined variable $sunset in /homepages/6/d276339138/htdocs/weather/oldRes/regional.php on line 110

KTAN - Taunton, Massachusetts, USA


Distance from station: SSE 40mi, 64km

Updated Wed Aug 10, 2022 2:52am EDT

Mist, Overcast

Mist, Overcast

Wind from varies

Wind:

varies 3 mph, 6 km/h

Temperature: 66°F (19°C)

Dew Point: 64°F (18°C)

Humidity: 94%

Barometer: 30.00 in (1015.9 hPa)

Summary: Mist

Clouds: Overcast

Visibility: 5 miles (8 km)

Cloud details: Overcast 400 ft


2022/08/10 06:52 KTAN 100652Z AUTO VRB03KT 5SM BR OVC004 19/18 A3000 RMK AO2 SLP158 T01940183 $


Warning: Undefined variable $sunrise in /homepages/6/d276339138/htdocs/weather/oldRes/regional.php on line 110

Warning: Undefined variable $sunset in /homepages/6/d276339138/htdocs/weather/oldRes/regional.php on line 110

KPYM - Plymouth, Massachusetts, USA


Distance from station: SE 44mi, 71km

Updated Wed Aug 10, 2022 3:20am EDT

Mist, Overcast

Mist, Overcast

Wind from NNE

Wind:

NNE 8 mph, 13 km/h

Temperature: 66°F (19°C)

Dew Point: 66°F (19°C)

Humidity: 100%

Barometer: 30.01 in (1016.3 hPa)

Summary: Mist

Clouds: Overcast

Visibility: 2 miles (3 km)

Cloud details: Overcast 300 ft


2022/08/10 07:20 KPYM 100720Z AUTO 02007KT 2SM BR OVC003 19/19 A3001 RMK AO2 T01940189


Warning: Undefined variable $sunrise in /homepages/6/d276339138/htdocs/weather/oldRes/regional.php on line 110

Warning: Undefined variable $sunset in /homepages/6/d276339138/htdocs/weather/oldRes/regional.php on line 110

KAFN - Jaffrey, New Hampshire, USA


Distance from station: WNW 46mi, 74km

Updated Wed Aug 10, 2022 2:52am EDT

Overcast

Overcast

Wind from calm

Wind:

Calm

Temperature: 66°F (19°C)

Dew Point: 64°F (18°C)

Humidity: 94%

Barometer: 30.06 in (1017.9 hPa)

Clouds: Overcast

Visibility: 8 miles (13 km)

Cloud details: Overcast 300 ft


2022/08/10 06:52 KAFN 100652Z AUTO 00000KT 8SM OVC003 19/18 A3006 RMK AO2 SLP177 T01940178


Warning: Undefined variable $sunrise in /homepages/6/d276339138/htdocs/weather/oldRes/regional.php on line 110

Warning: Undefined variable $sunset in /homepages/6/d276339138/htdocs/weather/oldRes/regional.php on line 110

KPSM - Portsmouth/Pease, New Hampshire, USA


Distance from station: NNE 49mi, 78km

Updated Wed Aug 10, 2022 2:56am EDT

Overcast

Overcast

Wind from ENE

Wind:

ENE 6 mph, 9 km/h

Temperature: 64°F (18°C)

Dew Point: 59°F (15°C)

Humidity: 83%

Barometer: 30.04 in (1017.3 hPa)

Clouds: Overcast

Visibility: 10 miles (16 km)

Cloud details: Overcast 1100 ft


2022/08/10 06:56 KPSM 100656Z 07005KT 10SM OVC011 18/15 A3004 RMK AO2A SLP175 T01840151


Warning: Undefined variable $sunrise in /homepages/6/d276339138/htdocs/weather/oldRes/regional.php on line 110

Warning: Undefined variable $sunset in /homepages/6/d276339138/htdocs/weather/oldRes/regional.php on line 110

KPVD - Providence/Green, Rhode Island, USA


Distance from station: S 51mi, 81km

Updated Wed Aug 10, 2022 2:51am EDT

Overcast

Overcast

Wind from NNE

Wind:

NNE 14 mph, 22 km/h

Temperature: 68°F (20°C)

Dew Point: 66°F (19°C)

Humidity: 94%

Barometer: 30.01 in (1016.3 hPa)

Clouds: Overcast

Visibility: 10 miles (16 km)

Cloud details: Overcast 700 ft


2022/08/10 06:51 KPVD 100651Z 03012KT 10SM OVC007 20/19 A3001 RMK AO2 SLP162 T02000189 $


Warning: Undefined variable $sunrise in /homepages/6/d276339138/htdocs/weather/oldRes/regional.php on line 110

Warning: Undefined variable $sunset in /homepages/6/d276339138/htdocs/weather/oldRes/regional.php on line 110

KORE - Orange, Massachusetts, USA


Distance from station: W 54mi, 86km

Updated Wed Aug 10, 2022 3:06am EDT

Overcast

Overcast

Wind from calm

Wind:

Calm

Temperature: 70°F (21°C)

Dew Point: 66°F (19°C)

Humidity: 88%

Barometer: 30.05 in (1017.6 hPa)

Clouds: Overcast

Visibility: 10 miles (16 km)

Cloud details: Mostly cloudy 900 ft
Overcast 1500 ft


2022/08/10 07:06 KORE 100706Z AUTO 00000KT 10SM BKN009 OVC015 21/19 A3005 RMK AO2 T02110189


Warning: Undefined variable $sunrise in /homepages/6/d276339138/htdocs/weather/oldRes/regional.php on line 110

Warning: Undefined variable $sunset in /homepages/6/d276339138/htdocs/weather/oldRes/regional.php on line 110

KEWB - New Bedford, Massachusetts, USA


Distance from station: SSE 54mi, 87km

Updated Wed Aug 10, 2022 2:53am EDT

Mist, Overcast

Mist, Overcast

Wind from N

Wind:

N 8 mph, 13 km/h

Temperature: 68°F (20°C)

Dew Point: 68°F (20°C)

Humidity: 100%

Barometer: 29.99 in (1015.6 hPa)

Summary: Mist

Clouds: Overcast

Visibility: 4 miles (6 km)

Cloud details: Overcast 300 ft


2022/08/10 06:53 KEWB 100653Z AUTO 01007KT 4SM BR OVC003 20/20 A2999 RMK AO2 SLP154 T02000200


Warning: Undefined variable $sunrise in /homepages/6/d276339138/htdocs/weather/oldRes/regional.php on line 110

Warning: Undefined variable $sunset in /homepages/6/d276339138/htdocs/weather/oldRes/regional.php on line 110

KCON - Concord, New Hampshire, USA


Distance from station: NNW 54mi, 88km

Updated Wed Aug 10, 2022 2:51am EDT

Overcast

Overcast

Wind from SSE

Wind:

SSE 5 mph, 7 km/h

Temperature: 66°F (19°C)

Dew Point: 63°F (17°C)

Humidity: 88%

Barometer: 30.04 in (1017.3 hPa)

Clouds: Overcast

Visibility: 10 miles (16 km)

Cloud details: Overcast 1000 ft


2022/08/10 06:51 KCON 100651Z AUTO 15004KT 10SM OVC010 19/17 A3004 RMK AO2 RAB33E50 SLP171 P0000 T01890172


Warning: Undefined variable $sunrise in /homepages/6/d276339138/htdocs/weather/oldRes/regional.php on line 110

Warning: Undefined variable $sunset in /homepages/6/d276339138/htdocs/weather/oldRes/regional.php on line 110

KMWN - Mount Washington, New Hampshire, USA


Distance from station: N 127mi, 204km

Updated Wed Aug 10, 2022 2:47am EDT

Fog, Overcast

Fog, Overcast

Wind from WSW

Wind:

WSW 31 mph, 50 km/h,
Gust: 40 mph, 65 km/h

Temperature: 50°F (10°C)

Wind Chill: 42°F (6°C)

Dew Point: 50°F (10°C)

Humidity: 100%

Summary: Fog

Clouds: Overcast

Visibility: 0 miles (0 km)

Cloud details: Overcast 0 ft


2022/08/10 06:47 KMWN 100647Z 25027G35KT 0SM FG VV000 10/10 RMK